Time;durP1;ratioP1;P1;durP2;ratioP2;P2;SDS_P1;SDS_P2;PMS_P1;PMS_P2;Temp;Humidity;BMP_temperature;BMP_pressure;BME280_temperature;BME280_humidity;BME280_pressure;Samples;Min_cycle;Max_cycle;Signal;HPM_P1;HPM_P2
2022/03/28 00:00:12;;;;;;;14.17;6.23;;;11.50;1.00;;;;;;4977142;28;20237;-51
2022/03/28 00:02:41;;;;;;;15.63;6.03;;;11.50;1.00;;;;;;4979149;28;20245;-50
2022/03/28 00:05:09;;;;;;;14.77;4.73;;;11.50;1.00;;;;;;4979687;28;20220;-51
2022/03/28 00:07:36;;;;;;;14.83;6.17;;;11.40;1.00;;;;;;4979729;28;20226;-50
2022/03/28 00:10:03;;;;;;;18.00;6.83;;;11.30;39.00;;;;;;4978892;28;20679;-52
2022/03/28 00:12:31;;;;;;;16.43;6.30;;;11.20;32.90;;;;;;4979323;28;20230;-52
2022/03/28 00:14:57;;;;;;;15.93;6.10;;;11.20;99.90;;;;;;4978039;28;20345;-52
2022/03/28 00:17:24;;;;;;;16.73;6.47;;;11.10;99.90;;;;;;4977902;28;20214;-52
2022/03/28 00:19:51;;;;;;;13.17;6.53;;;11.10;1.00;;;;;;4977338;28;20208;-54
2022/03/28 00:22:18;;;;;;;14.30;5.40;;;11.10;1.00;;;;;;4978162;28;20561;-52
2022/03/28 00:24:45;;;;;;;11.83;5.30;;;11.10;1.00;;;;;;4980880;28;20202;-54
2022/03/28 00:27:12;;;;;;;18.10;6.37;;;11.00;1.00;;;;;;4978971;28;21935;-52
2022/03/28 00:29:39;;;;;;;20.00;5.57;;;11.00;99.90;;;;;;4971910;28;20301;-52
2022/03/28 00:32:06;;;;;;;15.80;5.63;;;10.90;1.00;;;;;;4976741;28;20708;-53
2022/03/28 00:34:33;;;;;;;20.33;6.47;;;10.80;1.00;;;;;;4972804;28;20231;-53
2022/03/28 00:37:00;;;;;;;11.37;5.27;;;10.80;1.00;;;;;;4977061;28;21428;-52
2022/03/28 00:39:26;;;;;;;17.87;7.27;;;10.70;1.00;;;;;;4978323;28;20207;-52
2022/03/28 00:41:54;;;;;;;18.50;6.07;;;10.60;1.00;;;;;;4982387;28;20329;-52
2022/03/28 00:44:20;;;;;;;15.07;5.50;;;10.70;99.90;;;;;;4978438;28;20272;-52
2022/03/28 00:46:47;;;;;;;15.53;5.73;;;10.70;1.00;;;;;;4977693;28;20313;-51
2022/03/28 00:49:15;;;;;;;19.53;6.47;;;10.60;96.80;;;;;;4975885;28;20210;-52
2022/03/28 00:51:42;;;;;;;18.37;6.13;;;10.50;92.00;;;;;;4979376;28;20207;-49
2022/03/28 00:54:09;;;;;;;20.13;6.13;;;10.40;1.00;;;;;;4980674;28;20325;-52
2022/03/28 00:56:37;;;;;;;13.13;5.27;;;10.40;99.90;;;;;;4977303;28;20201;-54
2022/03/28 00:59:04;;;;;;;9.40;5.07;;;10.40;1.00;;;;;;4979931;28;20721;-53
2022/03/28 01:01:31;;;;;;;11.03;4.70;;;10.40;99.90;;;;;;4979270;28;20673;-53
2022/03/28 01:03:58;;;;;;;12.57;5.50;;;10.40;1.00;;;;;;4974919;28;20298;-52
2022/03/28 01:06:25;;;;;;;17.40;5.77;;;10.20;1.00;;;;;;4977104;28;20245;-53
2022/03/28 01:08:54;;;;;;;14.13;4.83;;;10.20;10.80;;;;;;4979129;28;20733;-52
2022/03/28 01:11:22;;;;;;;20.47;5.83;;;10.10;1.00;;;;;;4976282;28;21662;-52
2022/03/28 01:13:49;;;;;;;14.47;6.13;;;10.20;99.90;;;;;;4977977;28;20629;-53
2022/03/28 01:16:16;;;;;;;14.47;5.27;;;10.30;1.00;;;;;;4979749;28;20210;-53
2022/03/28 01:18:47;;;;;;;17.50;6.67;;;10.20;99.40;;;;;;4977121;28;20681;-54
2022/03/28 01:21:17;;;;;;;20.20;6.37;;;10.10;99.90;;;;;;4975918;28;20206;-52
2022/03/28 01:23:45;;;;;;;17.97;6.37;;;10.00;99.90;;;;;;4977002;28;20564;-53
2022/03/28 01:26:13;;;;;;;14.00;5.33;;;10.10;99.90;;;;;;4976426;28;20213;-53
2022/03/28 01:28:41;;;;;;;14.47;5.93;;;10.00;1.00;;;;;;4977626;28;20207;-53
2022/03/28 01:31:08;;;;;;;16.13;5.43;;;10.00;1.00;;;;;;4977084;28;21543;-53
2022/03/28 01:33:35;;;;;;;13.43;5.87;;;10.00;1.00;;;;;;4975953;28;20527;-53
2022/03/28 01:36:03;;;;;;;14.77;5.13;;;9.90;99.90;;;;;;4977454;28;20654;-52
2022/03/28 01:38:29;;;;;;;19.13;5.13;;;9.80;1.00;;;;;;4977352;28;20214;-52
2022/03/28 01:40:56;;;;;;;15.10;5.20;;;9.60;1.00;;;;;;4978433;28;20706;-53
2022/03/28 01:43:23;;;;;;;16.13;5.73;;;9.50;1.00;;;;;;4979601;28;20212;-55
2022/03/28 01:45:51;;;;;;;16.33;5.23;;;9.70;1.00;;;;;;4976430;28;20305;-56
2022/03/28 01:48:18;;;;;;;16.77;5.07;;;9.60;1.00;;;;;;4978134;28;20300;-50
2022/03/28 01:50:45;;;;;;;12.90;4.67;;;9.60;1.00;;;;;;4975987;28;20732;-53
2022/03/28 01:53:12;;;;;;;18.77;5.70;;;9.50;1.00;;;;;;4975918;28;20240;-52
2022/03/28 01:55:39;;;;;;;17.13;5.33;;;9.50;1.00;;;;;;4976973;28;20272;-53
2022/03/28 01:58:06;;;;;;;12.93;4.47;;;9.40;1.00;;;;;;4976142;28;20264;-53
2022/03/28 02:00:33;;;;;;;13.33;4.27;;;9.50;99.90;;;;;;4974381;28;20249;-55
2022/03/28 02:03:00;;;;;;;13.93;5.00;;;9.50;1.00;;;;;;4974065;28;20242;-52
2022/03/28 02:05:28;;;;;;;15.13;4.43;;;9.50;1.00;;;;;;4974704;28;20228;-52
2022/03/28 02:07:55;;;;;;;15.30;4.60;;;9.50;1.00;;;;;;4976670;28;20653;-52
2022/03/28 02:10:22;;;;;;;13.33;4.87;;;9.40;1.00;;;;;;4976448;28;20249;-51
2022/03/28 02:12:51;;;;;;;18.07;4.57;;;9.30;99.90;;;;;;4975931;28;20247;-53
2022/03/28 02:15:18;;;;;;;12.37;4.77;;;9.30;99.90;;;;;;4993818;28;20308;-52
2022/03/28 02:17:46;;;;;;;14.20;4.37;;;9.50;1.00;;;;;;4975507;28;20751;-53
2022/03/28 02:20:15;;;;;;;17.37;4.60;;;9.50;1.00;;;;;;4975342;28;20232;-52
2022/03/28 02:22:43;;;;;;;11.73;5.20;;;9.40;1.00;;;;;;4976728;28;20774;-53
2022/03/28 02:25:11;;;;;;;18.00;5.33;;;9.40;1.00;;;;;;4976601;28;20201;-54
2022/03/28 02:27:38;;;;;;;13.97;4.97;;;9.30;1.00;;;;;;4977178;28;20657;-52
2022/03/28 02:30:10;;;;;;;14.30;4.53;;;9.20;99.90;;;;;;4975644;28;20206;-55
2022/03/28 02:32:37;;;;;;;18.03;6.03;;;9.10;1.00;;;;;;4977393;28;20209;-53
2022/03/28 02:35:06;;;;;;;20.20;4.30;;;9.00;99.90;;;;;;4975042;28;20712;-53
2022/03/28 02:37:33;;;;;;;15.93;4.90;;;9.10;94.80;;;;;;4975497;28;20250;-54
2022/03/28 02:40:00;;;;;;;18.33;4.77;;;9.20;1.00;;;;;;4974245;28;20252;-54
2022/03/28 02:42:27;;;;;;;16.33;4.53;;;9.10;1.00;;;;;;4977411;28;20259;-51
2022/03/28 02:44:53;;;;;;;20.80;4.37;;;9.00;1.00;;;;;;4976066;28;20339;-52
2022/03/28 02:47:21;;;;;;;15.37;4.33;;;8.90;1.00;;;;;;4977391;28;20215;-54
2022/03/28 02:49:49;;;;;;;16.37;4.27;;;9.00;1.00;;;;;;4975984;28;20587;-53
2022/03/28 02:52:16;;;;;;;9.63;4.03;;;8.90;1.00;;;;;;4977798;28;20209;-52
2022/03/28 02:54:44;;;;;;;12.70;4.43;;;8.90;1.00;;;;;;4977213;28;21034;-53
2022/03/28 02:57:10;;;;;;;16.57;4.73;;;8.90;1.00;;;;;;4976333;28;20198;-53
2022/03/28 02:59:37;;;;;;;14.97;4.43;;;8.70;1.00;;;;;;4972800;28;20233;-52
2022/03/28 03:02:04;;;;;;;17.83;5.40;;;8.80;1.00;;;;;;4973456;28;20204;-53
2022/03/28 03:04:32;;;;;;;18.97;4.37;;;8.80;1.00;;;;;;4975384;28;20701;-53
2022/03/28 03:06:59;;;;;;;14.67;4.00;;;8.80;1.00;;;;;;4974331;28;20233;-53
2022/03/28 03:09:26;;;;;;;20.37;4.47;;;8.70;1.00;;;;;;4972716;28;20220;-56
2022/03/28 03:11:53;;;;;;;12.37;4.53;;;8.70;1.00;;;;;;4975345;28;20793;-53
2022/03/28 03:14:20;;;;;;;12.43;4.20;;;8.70;1.00;;;;;;4972641;28;20661;-51
2022/03/28 03:16:47;;;;;;;11.67;4.30;;;8.90;1.00;;;;;;4972940;28;20534;-52
2022/03/28 03:19:14;;;;;;;13.93;4.73;;;8.90;1.00;;;;;;4974439;28;20276;-53
2022/03/28 03:21:41;;;;;;;16.83;4.27;;;9.00;99.90;;;;;;4971913;28;20302;-53
2022/03/28 03:24:08;;;;;;;21.57;4.30;;;9.00;1.00;;;;;;4973797;28;20247;-55
2022/03/28 03:26:35;;;;;;;16.10;5.00;;;8.80;1.00;;;;;;4973381;28;20209;-53
2022/03/28 03:29:02;;;;;;;14.20;4.47;;;8.80;1.00;;;;;;4974676;28;20278;-52
2022/03/28 03:31:29;;;;;;;14.17;5.00;;;8.70;1.00;;;;;;4972025;28;20371;-53
2022/03/28 03:33:56;;;;;;;13.37;4.93;;;8.80;1.00;;;;;;4972840;28;20213;-53
2022/03/28 03:36:23;;;;;;;15.37;4.30;;;8.70;1.00;;;;;;4973367;28;20974;-54
2022/03/28 03:38:50;;;;;;;15.47;4.93;;;8.80;1.00;;;;;;4974201;28;20660;-53
2022/03/28 03:41:17;;;;;;;13.43;4.20;;;8.70;1.00;;;;;;4970468;28;20728;-53
2022/03/28 03:43:44;;;;;;;21.70;4.37;;;8.60;1.00;;;;;;4973168;28;20303;-53
2022/03/28 03:46:11;;;;;;;12.50;4.60;;;8.60;1.00;;;;;;4974731;28;20543;-52
2022/03/28 03:48:38;;;;;;;17.30;4.67;;;8.70;1.00;;;;;;4973844;28;20267;-54
2022/03/28 03:51:05;;;;;;;14.73;4.40;;;8.70;1.00;;;;;;4973216;28;20230;-54
2022/03/28 03:53:32;;;;;;;22.23;4.90;;;8.60;1.00;;;;;;4974903;28;20230;-51
2022/03/28 03:55:59;;;;;;;9.83;4.47;;;8.60;1.00;;;;;;4973544;28;20317;-53
2022/03/28 03:58:27;;;;;;;15.17;4.07;;;8.40;1.00;;;;;;4974134;28;20403;-53
2022/03/28 04:00:54;;;;;;;14.23;4.70;;;8.50;1.00;;;;;;4974120;28;20311;-51
2022/03/28 04:03:21;;;;;;;17.57;4.17;;;8.50;1.00;;;;;;4972578;28;20204;-54
2022/03/28 04:05:48;;;;;;;15.03;4.63;;;8.60;1.00;;;;;;4970487;28;20225;-54
2022/03/28 04:08:15;;;;;;;19.90;3.93;;;8.60;1.00;;;;;;4971630;28;20213;-53
2022/03/28 04:10:42;;;;;;;17.33;5.70;;;8.50;1.00;;;;;;4973810;28;20656;-53
2022/03/28 04:13:12;;;;;;;13.00;4.00;;;8.50;1.00;;;;;;4971061;28;20561;-52
2022/03/28 04:15:39;;;;;;;14.87;4.70;;;8.70;1.00;;;;;;4988045;28;22361;-53
2022/03/28 04:18:06;;;;;;;21.63;5.00;;;8.60;1.00;;;;;;4974001;28;20245;-54
2022/03/28 04:20:33;;;;;;;15.50;4.30;;;8.60;1.00;;;;;;4972273;28;20555;-52
2022/03/28 04:23:00;;;;;;;19.90;5.33;;;8.50;1.00;;;;;;4974439;28;20280;-52
2022/03/28 04:25:27;;;;;;;17.97;4.53;;;8.40;1.00;;;;;;4975258;28;20701;-53
2022/03/28 04:27:53;;;;;;;17.17;4.30;;;8.40;1.00;;;;;;4975394;28;20673;-53
2022/03/28 04:30:21;;;;;;;14.17;4.13;;;8.20;6.10;;;;;;4974902;28;20197;-52
2022/03/28 04:32:48;;;;;;;17.73;4.20;;;8.20;65.50;;;;;;4976686;28;20209;-52
2022/03/28 04:35:15;;;;;;;22.30;4.73;;;8.10;92.70;;;;;;4977855;28;20676;-54
2022/03/28 04:37:43;;;;;;;18.23;5.13;;;8.10;99.90;;;;;;4974971;28;20742;-52
2022/03/28 04:40:13;;;;;;;15.40;4.63;;;8.20;99.90;;;;;;4975289;28;20307;-52
2022/03/28 04:42:40;;;;;;;15.10;4.40;;;8.30;99.90;;;;;;4978474;28;20259;-55
2022/03/28 04:45:07;;;;;;;16.10;5.60;;;8.30;86.40;;;;;;4977289;28;20296;-54
2022/03/28 04:47:35;;;;;;;17.97;4.73;;;8.10;71.10;;;;;;4974861;28;20227;-53
2022/03/28 04:50:03;;;;;;;11.93;4.47;;;8.20;94.50;;;;;;4978730;28;20247;-53
2022/03/28 04:52:30;;;;;;;13.87;4.53;;;8.30;24.70;;;;;;4978341;28;20217;-54
2022/03/28 04:54:57;;;;;;;11.87;4.20;;;8.30;1.00;;;;;;4977915;28;20223;-53
2022/03/28 04:57:24;;;;;;;20.97;5.33;;;8.30;1.00;;;;;;4977977;28;20282;-55
2022/03/28 04:59:51;;;;;;;18.77;4.93;;;8.10;78.30;;;;;;4974537;28;20283;-54
2022/03/28 05:02:18;;;;;;;15.57;4.83;;;8.20;42.90;;;;;;4970923;28;20200;-53
2022/03/28 05:04:45;;;;;;;18.87;4.93;;;8.10;99.90;;;;;;4974259;28;20212;-52
2022/03/28 05:07:11;;;;;;;12.70;4.50;;;8.10;99.20;;;;;;4975325;28;20575;-51
2022/03/28 05:09:38;;;;;;;17.37;5.17;;;8.10;99.90;;;;;;4977794;28;20216;-52
2022/03/28 05:12:05;;;;;;;13.40;4.33;;;8.20;60.30;;;;;;4979025;28;20275;-52
2022/03/28 05:14:33;;;;;;;16.00;5.10;;;8.10;61.90;;;;;;4975293;28;20663;-54
2022/03/28 05:16:59;;;;;;;13.33;4.73;;;8.10;99.90;;;;;;4977008;28;20210;-51
2022/03/28 05:19:26;;;;;;;14.87;4.70;;;8.00;99.90;;;;;;4971447;28;20206;-53
2022/03/28 05:21:53;;;;;;;20.07;4.80;;;8.10;99.90;;;;;;4972974;28;20704;-53
2022/03/28 05:24:21;;;;;;;12.37;4.80;;;8.10;99.90;;;;;;4965889;28;20215;-54
2022/03/28 05:26:48;;;;;;;17.80;4.77;;;8.10;99.90;;;;;;4973103;28;20262;-53
2022/03/28 05:29:15;;;;;;;18.70;4.80;;;8.10;92.80;;;;;;4975342;28;20258;-52
2022/03/28 05:31:42;;;;;;;15.27;4.97;;;8.20;14.70;;;;;;4974008;28;20291;-55
2022/03/28 05:34:10;;;;;;;15.23;4.53;;;8.20;15.20;;;;;;4972930;28;20220;-52
2022/03/28 05:36:38;;;;;;;20.20;5.20;;;8.10;1.00;;;;;;4972617;28;20743;-52
2022/03/28 05:39:05;;;;;;;18.00;5.00;;;8.00;67.20;;;;;;4975006;28;20229;-56
2022/03/28 05:41:31;;;;;;;18.53;5.23;;;8.00;98.60;;;;;;4974907;28;20255;-52
2022/03/28 05:43:58;;;;;;;14.97;5.43;;;8.00;99.90;;;;;;4975660;28;20661;-53
2022/03/28 05:46:25;;;;;;;17.97;5.63;;;7.90;99.90;;;;;;4970074;28;20215;-52
2022/03/28 05:48:53;;;;;;;15.73;5.57;;;7.80;99.90;;;;;;4972176;28;20211;-52
2022/03/28 05:51:20;;;;;;;18.10;5.53;;;7.90;99.90;;;;;;4966468;28;20692;-52
2022/03/28 05:53:47;;;;;;;18.87;5.43;;;7.90;99.90;;;;;;4971905;28;20301;-52
2022/03/28 05:56:14;;;;;;;14.43;5.17;;;8.00;99.90;;;;;;4976842;28;20712;-53
2022/03/28 05:58:41;;;;;;;22.03;5.57;;;8.10;99.90;;;;;;4977950;28;20662;-54
2022/03/28 06:01:08;;;;;;;13.47;5.03;;;8.00;86.10;;;;;;4962851;28;20210;-53
2022/03/28 06:03:37;;;;;;;13.43;4.83;;;8.10;60.00;;;;;;4973100;28;20882;-55
2022/03/28 06:06:07;;;;;;;16.57;5.50;;;8.10;45.50;;;;;;4969479;28;20239;-53
2022/03/28 06:08:34;;;;;;;19.83;5.20;;;8.10;43.80;;;;;;4976742;28;21299;-55
2022/03/28 06:11:03;;;;;;;21.53;5.23;;;8.10;85.00;;;;;;4976087;28;20293;-54
2022/03/28 06:13:31;;;;;;;21.70;5.57;;;8.10;38.90;;;;;;4977228;28;20299;-53
2022/03/28 06:15:59;;;;;;;20.50;5.73;;;8.10;49.10;;;;;;4975783;28;20226;-54
2022/03/28 06:18:26;;;;;;;19.13;5.47;;;8.30;1.00;;;;;;4975557;28;20626;-53
2022/03/28 06:20:53;;;;;;;17.93;5.53;;;8.30;8.30;;;;;;4977071;28;20740;-53
2022/03/28 06:23:20;;;;;;;15.77;6.23;;;8.40;1.00;;;;;;4975592;28;20303;-53
2022/03/28 06:25:47;;;;;;;13.00;5.50;;;8.40;1.00;;;;;;4975093;28;20618;-50
2022/03/28 06:28:15;;;;;;;17.87;6.30;;;8.50;1.00;;;;;;4973529;28;20296;-53
2022/03/28 06:30:42;;;;;;;13.63;4.67;;;8.50;1.00;;;;;;4975373;28;20307;-52
2022/03/28 06:33:10;;;;;;;22.37;5.47;;;8.50;1.00;;;;;;4972238;28;20202;-52
2022/03/28 06:35:37;;;;;;;17.47;5.77;;;8.60;1.00;;;;;;4977284;28;20338;-52
2022/03/28 06:38:05;;;;;;;15.27;5.43;;;8.70;1.00;;;;;;4978435;28;20321;-52
2022/03/28 06:40:31;;;;;;;22.80;6.27;;;8.80;1.00;;;;;;4971207;28;20303;-50
2022/03/28 06:42:58;;;;;;;17.03;5.63;;;8.90;1.00;;;;;;4972285;28;20335;-50
2022/03/28 06:45:26;;;;;;;21.00;5.57;;;8.90;99.90;;;;;;4975922;28;20212;-53
2022/03/28 06:47:53;;;;;;;16.90;6.00;;;8.90;1.00;;;;;;4973595;28;20305;-53
2022/03/28 06:50:22;;;;;;;17.43;6.27;;;9.20;99.90;;;;;;4970081;28;20732;-51
2022/03/28 06:52:48;;;;;;;16.00;6.07;;;9.30;1.00;;;;;;4973371;28;20330;-51
2022/03/28 06:55:15;;;;;;;24.73;6.50;;;9.50;1.00;;;;;;4973433;28;20651;-51
2022/03/28 06:57:42;;;;;;;13.47;5.47;;;9.60;99.90;;;;;;4970293;28;20201;-53
2022/03/28 07:00:10;;;;;;;20.50;5.80;;;9.80;99.90;;;;;;4968418;28;20283;-49
2022/03/28 07:02:38;;;;;;;20.23;6.63;;;9.70;1.00;;;;;;4971925;28;20295;-51
2022/03/28 07:05:06;;;;;;;16.70;6.50;;;9.70;77.10;;;;;;4977036;28;20266;-51
2022/03/28 07:07:40;;;;;;;22.80;7.17;;;9.80;99.90;;;;;;4969823;28;20299;-51
2022/03/28 07:10:07;;;;;;;19.63;6.93;;;10.10;99.90;;;;;;4973657;28;20238;-53
2022/03/28 07:12:34;;;;;;;20.13;6.87;;;10.20;99.90;;;;;;4971853;28;20329;-53
2022/03/28 07:15:01;;;;;;;19.80;6.67;;;10.30;1.00;;;;;;4972070;28;20225;-51
2022/03/28 07:17:28;;;;;;;17.93;7.23;;;10.60;1.00;;;;;;4975489;28;20198;-52
2022/03/28 07:19:55;;;;;;;17.03;6.63;;;10.70;99.90;;;;;;4973579;28;20285;-51
2022/03/28 07:22:21;;;;;;;15.40;6.27;;;10.60;1.00;;;;;;4974441;28;20206;-51
2022/03/28 07:24:49;;;;;;;18.10;6.50;;;10.70;1.00;;;;;;4975182;28;20624;-53
2022/03/28 07:27:17;;;;;;;23.43;6.83;;;10.80;1.00;;;;;;4973497;28;20219;-51
2022/03/28 07:29:45;;;;;;;16.90;6.40;;;10.80;1.00;;;;;;4973179;28;20233;-51
2022/03/28 07:32:11;;;;;;;19.33;6.93;;;10.50;1.00;;;;;;4971798;28;20210;-50
2022/03/28 07:34:43;;;;;;;13.50;6.00;;;11.00;1.00;;;;;;4972558;28;20416;-51
2022/03/28 07:37:10;;;;;;;18.43;6.47;;;11.30;1.00;;;;;;4973779;28;20229;-50
2022/03/28 07:39:39;;;;;;;18.07;6.90;;;11.30;99.90;;;;;;4972460;28;20231;-55
2022/03/28 07:42:07;;;;;;;17.63;7.60;;;11.40;1.00;;;;;;4972691;28;20292;-59
2022/03/28 07:44:37;;;;;;;14.97;7.73;;;11.60;1.00;;;;;;4973823;28;20299;-53
2022/03/28 07:47:08;;;;;;;17.03;7.13;;;11.70;18.90;;;;;;4972965;28;20233;-51
2022/03/28 07:49:37;;;;;;;22.93;7.57;;;11.90;99.90;;;;;;4972666;28;20234;-52
2022/03/28 07:52:07;;;;;;;20.93;7.10;;;11.70;1.00;;;;;;4976392;28;20272;-50
2022/03/28 07:54:36;;;;;;;21.60;8.00;;;11.80;1.00;;;;;;4975085;28;20655;-51
2022/03/28 07:57:03;;;;;;;19.53;7.90;;;12.20;1.00;;;;;;4973304;28;20222;-50
2022/03/28 07:59:30;;;;;;;14.50;7.60;;;12.70;1.00;;;;;;4971669;28;20206;-49
2022/03/28 08:01:57;;;;;;;15.23;7.60;;;13.00;1.00;;;;;;4974661;28;20215;-53
2022/03/28 08:04:24;;;;;;;19.37;7.30;;;12.80;99.90;;;;;;4974884;28;20213;-52
2022/03/28 08:06:51;;;;;;;20.67;7.57;;;12.90;99.90;;;;;;4975561;28;20338;-51
2022/03/28 08:09:17;;;;;;;17.23;7.27;;;13.30;57.30;;;;;;4976253;28;20302;-51
2022/03/28 08:11:44;;;;;;;18.97;8.77;;;13.20;99.90;;;;;;4973338;28;20705;-51
2022/03/28 08:14:11;;;;;;;16.70;8.47;;;13.60;1.00;;;;;;4977626;28;20219;-52
2022/03/28 08:16:38;;;;;;;16.97;8.10;;;13.90;1.00;;;;;;4978532;28;20216;-53
2022/03/28 08:19:05;;;;;;;20.97;8.10;;;14.00;1.00;;;;;;4974645;28;20204;-50
2022/03/28 08:21:32;;;;;;;15.67;7.37;;;14.40;99.90;;;;;;4981106;28;20206;-54
2022/03/28 08:23:59;;;;;;;15.03;8.13;;;14.50;99.90;;;;;;4976113;28;20250;-51
2022/03/28 08:26:26;;;;;;;22.17;8.90;;;14.90;1.00;;;;;;4977821;28;20471;-53
2022/03/28 08:28:53;;;;;;;20.03;8.83;;;14.70;99.90;;;;;;4975628;28;20235;-53
2022/03/28 08:31:20;;;;;;;23.37;9.23;;;14.30;99.90;;;;;;4981478;28;20220;-51
2022/03/28 08:33:47;;;;;;;17.30;8.13;;;14.40;99.90;;;;;;4978108;28;21101;-51
2022/03/28 08:36:14;;;;;;;22.00;9.37;;;14.90;1.00;;;;;;4977851;28;20321;-51
2022/03/28 08:38:41;;;;;;;20.77;9.57;;;15.40;1.00;;;;;;4980640;28;20212;-52
2022/03/28 08:41:13;;;;;;;20.57;9.40;;;15.50;1.00;;;;;;4978900;28;20254;-51
2022/03/28 08:43:41;;;;;;;18.57;8.73;;;15.80;1.00;;;;;;4976000;28;20409;-51
2022/03/28 08:46:09;;;;;;;17.33;9.37;;;15.20;1.00;;;;;;4978460;28;20209;-52
2022/03/28 08:48:40;;;;;;;18.03;9.03;;;15.60;1.00;;;;;;4979446;28;20704;-50
2022/03/28 08:51:19;;;;;;;16.47;9.43;;;16.00;1.00;;;;;;4978761;28;20252;-52
2022/03/28 08:53:46;;;;;;;22.33;10.63;;;16.00;1.00;;;;;;4981026;28;20205;-50
2022/03/28 08:56:13;;;;;;;16.87;9.13;;;16.30;1.00;;;;;;4975441;28;20220;-52
2022/03/28 08:59:00;;;;;;;20.40;10.73;;;16.70;99.90;;;;;;4977220;28;20206;-52
2022/03/28 09:01:27;;;;;;;18.83;9.00;;;16.30;99.90;;;;;;4980810;28;20252;-51
2022/03/28 09:03:54;;;;;;;16.73;9.53;;;16.60;1.00;;;;;;4974864;28;20255;-51
2022/03/28 09:06:31;;;;;;;19.83;9.80;;;16.40;99.90;;;;;;4978792;28;20335;-49
2022/03/28 09:09:16;;;;;;;18.50;9.47;;;16.90;99.90;;;;;;4979016;28;20227;-48
2022/03/28 09:11:51;;;;;;;21.87;9.90;;;16.10;99.90;;;;;;4976840;28;20252;-50
2022/03/28 09:14:29;;;;;;;17.40;9.83;;;15.80;1.00;;;;;;4977203;28;20648;-50
2022/03/28 09:17:02;;;;;;;19.47;10.83;;;16.80;99.90;;;;;;4982780;28;20220;-51
2022/03/28 09:19:55;;;;;;;20.10;11.27;;;17.30;53.70;;;;;;4977167;28;20195;-51
2022/03/28 09:22:24;;;;;;;17.77;9.93;;;17.60;1.00;;;;;;4973691;28;20214;-52
2022/03/28 09:24:57;;;;;;;22.47;11.27;;;18.20;1.00;;;;;;4978630;28;20211;-52
2022/03/28 09:27:27;;;;;;;23.33;11.53;;;18.10;1.00;;;;;;4977957;28;20203;-52
2022/03/28 09:29:59;;;;;;;22.87;12.17;;;18.10;1.00;;;;;;4977418;28;20626;-49
2022/03/28 09:32:29;;;;;;;19.00;11.60;;;18.20;1.00;;;;;;4976503;28;20305;-52
2022/03/28 09:35:13;;;;;;;17.87;9.57;;;17.90;1.00;;;;;;4979200;28;20333;-53
2022/03/28 09:37:58;;;;;;;24.73;10.73;;;18.00;1.00;;;;;;4977352;28;20251;-51
2022/03/28 09:40:29;;;;;;;20.83;10.53;;;17.60;1.00;;;;;;4977518;28;20354;-50
2022/03/28 09:42:57;;;;;;;19.20;10.67;;;18.00;1.00;;;;;;4976775;28;20213;-49
2022/03/28 09:45:27;;;;;;;25.03;10.53;;;16.90;99.90;;;;;;4977881;28;20347;-53
2022/03/28 09:48:03;;;;;;;17.53;10.37;;;17.20;1.00;;;;;;4975058;28;20209;-49
2022/03/28 09:50:43;;;;;;;19.17;10.27;;;17.40;10.90;;;;;;4980079;28;20204;-51
2022/03/28 09:53:19;;;;;;;22.93;10.97;;;17.60;99.90;;;;;;4978414;28;20300;-52
2022/03/28 09:55:50;;;;;;;18.60;11.67;;;17.60;99.90;;;;;;4979555;28;20605;-53
2022/03/28 09:58:35;;;;;;;20.83;11.33;;;18.10;1.00;;;;;;4976536;28;20220;-49
2022/03/28 10:01:07;;;;;;;17.60;10.63;;;17.90;1.00;;;;;;4974508;28;20203;-50
2022/03/28 10:03:36;;;;;;;19.40;10.57;;;17.30;99.90;;;;;;4976880;28;20199;-51
2022/03/28 10:06:06;;;;;;;18.93;10.97;;;17.80;1.00;;;;;;4978839;28;20235;-49
2022/03/28 10:08:35;;;;;;;24.70;12.57;;;18.00;71.30;;;;;;4977042;28;20234;-50
2022/03/28 10:11:04;;;;;;;19.10;11.50;;;17.20;99.90;;;;;;4976943;28;20243;-51
2022/03/28 10:13:31;;;;;;;26.03;11.07;;;16.80;99.90;;;;;;4976492;28;20290;-52
2022/03/28 10:15:58;;;;;;;20.17;11.80;;;17.20;99.90;;;;;;4978006;28;20311;-51
2022/03/28 10:18:30;;;;;;;22.00;11.83;;;17.80;90.00;;;;;;4975008;28;20207;-50
2022/03/28 10:21:01;;;;;;;19.73;11.23;;;17.40;99.90;;;;;;4977149;28;20253;-50
2022/03/28 10:23:59;;;;;;;21.37;11.37;;;16.80;1.00;;;;;;4978514;28;20255;-51
2022/03/28 10:26:37;;;;;;;19.37;10.43;;;16.80;1.00;;;;;;4978279;28;20202;-51
2022/03/28 10:29:09;;;;;;;22.33;12.07;;;17.40;1.00;;;;;;4989659;28;20308;-53
2022/03/28 10:31:55;;;;;;;19.60;12.17;;;16.90;99.90;;;;;;4978547;28;20281;-51
2022/03/28 10:35:04;;;;;;;25.10;13.10;;;16.70;99.90;;;;;;4976808;28;20668;-50
2022/03/28 10:37:43;;;;;;;23.63;11.40;;;17.00;99.90;;;;;;4976588;28;20218;-49
2022/03/28 10:40:21;;;;;;;19.03;11.60;;;17.10;3.40;;;;;;4977169;28;20207;-57
2022/03/28 10:43:02;;;;;;;21.57;12.10;;;17.20;99.90;;;;;;4977595;28;20283;-49
2022/03/28 10:45:56;;;;;;;19.67;10.80;;;17.50;99.90;;;;;;4977415;28;20240;-49
2022/03/28 10:48:39;;;;;;;19.27;12.40;;;17.70;1.00;;;;;;4977744;28;20230;-51
2022/03/28 10:51:13;;;;;;;22.70;12.50;;;18.00;1.00;;;;;;4977005;28;20298;-51
2022/03/28 10:54:09;;;;;;;18.37;11.87;;;18.00;1.00;;;;;;4977950;28;20203;-51
2022/03/28 10:56:45;;;;;;;19.40;11.97;;;18.20;1.00;;;;;;4980570;28;20229;-52
2022/03/28 10:59:21;;;;;;;19.03;11.60;;;18.20;1.00;;;;;;4975406;28;20623;-51
2022/03/28 11:01:51;;;;;;;18.27;12.43;;;18.00;1.00;;;;;;4975885;28;20738;-52
2022/03/28 11:04:21;;;;;;;20.57;11.97;;;18.10;1.00;;;;;;4978032;28;20303;-51
2022/03/28 11:07:03;;;;;;;21.40;12.10;;;18.40;1.00;;;;;;4978115;28;20291;-50
2022/03/28 11:09:50;;;;;;;19.27;12.33;;;18.80;1.00;;;;;;4977365;28;20234;-51
2022/03/28 11:12:30;;;;;;;20.77;11.63;;;19.00;1.00;;;;;;4976148;28;20371;-52
2022/03/28 11:15:01;;;;;;;23.00;12.13;;;19.00;1.00;;;;;;4975600;28;20442;-50
2022/03/28 11:17:38;;;;;;;20.87;11.57;;;19.50;1.00;;;;;;4976469;28;20311;-53
2022/03/28 11:20:18;;;;;;;21.27;12.23;;;19.00;1.00;;;;;;4976400;28;20201;-51
2022/03/28 11:23:04;;;;;;;19.43;12.50;;;19.50;1.00;;;;;;4977045;28;20215;-52
2022/03/28 11:25:41;;;;;;;21.50;12.33;;;19.60;1.00;;;;;;4978174;28;20679;-50
2022/03/28 11:28:18;;;;;;;19.97;13.53;;;19.20;1.00;;;;;;4973011;28;20273;-51
2022/03/28 11:30:45;;;;;;;20.60;11.90;;;19.60;1.00;;;;;;5006847;28;20217;-51
2022/03/28 11:33:14;;;;;;;23.70;12.80;;;20.00;1.00;;;;;;4977490;28;20213;-51
2022/03/28 11:36:02;;;;;;;19.23;12.43;;;20.20;99.90;;;;;;4978580;28;20695;-52
2022/03/28 11:38:35;;;;;;;20.23;11.77;;;19.80;99.90;;;;;;4982086;28;20225;-49
2022/03/28 11:41:03;;;;;;;19.50;12.10;;;20.30;99.90;;;;;;4981414;28;20664;-51
2022/03/28 11:43:32;;;;;;;22.10;12.60;;;20.00;99.90;;;;;;4977481;28;20202;-50
2022/03/28 11:46:02;;;;;;;18.10;11.73;;;19.50;1.00;;;;;;4979878;28;20281;-50
2022/03/28 11:48:29;;;;;;;18.80;12.17;;;19.90;1.00;;;;;;4981365;28;20625;-50
2022/03/28 11:50:57;;;;;;;17.63;12.30;;;20.00;1.00;;;;;;4978464;28;20673;-50
2022/03/28 11:53:24;;;;;;;20.60;12.20;;;20.00;99.90;;;;;;4979399;28;20668;-51
2022/03/28 11:55:53;;;;;;;17.67;11.57;;;20.00;1.00;;;;;;4980795;28;20264;-49
2022/03/28 11:58:31;;;;;;;22.83;11.87;;;20.70;99.90;;;;;;4980309;28;20292;-51
2022/03/28 12:01:10;;;;;;;19.37;11.87;;;20.40;99.90;;;;;;4979866;28;20206;-51
2022/03/28 12:03:47;;;;;;;19.47;11.40;;;20.00;99.90;;;;;;4979620;28;20212;-51
2022/03/28 12:06:31;;;;;;;20.27;11.17;;;19.90;99.90;;;;;;4986669;28;20248;-50
2022/03/28 12:08:58;;;;;;;23.33;11.60;;;20.60;99.90;;;;;;4980670;28;20232;-51
2022/03/28 12:11:26;;;;;;;19.17;11.50;;;20.20;99.90;;;;;;4980910;28;20656;-50
2022/03/28 12:13:54;;;;;;;18.57;12.10;;;20.90;99.90;;;;;;4977235;28;20225;-50
2022/03/28 12:16:22;;;;;;;16.67;12.00;;;21.00;99.90;;;;;;4979838;28;20222;-50
2022/03/28 12:18:51;;;;;;;19.03;11.40;;;20.70;99.90;;;;;;4976572;28;20821;-51
2022/03/28 12:21:19;;;;;;;20.23;12.37;;;20.70;99.90;;;;;;4980947;28;20289;-50
2022/03/28 12:23:46;;;;;;;19.67;12.07;;;21.20;99.90;;;;;;4976846;28;20297;-52
2022/03/28 12:26:13;;;;;;;21.67;12.97;;;21.10;99.90;;;;;;4972798;28;20214;-51
2022/03/28 12:28:43;;;;;;;20.20;12.27;;;20.80;99.90;;;;;;4975748;28;20580;-52
2022/03/28 12:31:10;;;;;;;21.27;12.60;;;20.70;99.90;;;;;;4974158;28;20301;-51
2022/03/28 12:33:40;;;;;;;18.07;12.73;;;20.20;99.90;;;;;;4973429;28;20209;-51
2022/03/28 12:36:11;;;;;;;18.10;12.20;;;20.40;99.90;;;;;;4978116;28;20525;-51
2022/03/28 12:38:41;;;;;;;23.07;12.13;;;20.20;99.90;;;;;;4978878;28;20223;-50
2022/03/28 12:41:11;;;;;;;19.13;12.37;;;19.90;99.90;;;;;;4974244;28;20290;-50
2022/03/28 12:43:39;;;;;;;21.27;12.30;;;20.70;99.90;;;;;;4971480;28;20263;-55
2022/03/28 12:46:10;;;;;;;21.70;12.37;;;20.70;99.90;;;;;;4976348;28;20591;-51
2022/03/28 12:48:38;;;;;;;18.80;11.10;;;20.30;99.90;;;;;;4971644;28;20202;-51
2022/03/28 12:51:06;;;;;;;20.33;11.73;;;20.20;99.90;;;;;;4977095;28;20304;-49
2022/03/28 12:53:35;;;;;;;19.43;9.73;;;20.20;99.90;;;;;;4976322;28;20198;-51